Latest Coastal Weather Observations for Rosslyn Bay Harbour

IDQ60701

Issued at 9:21 pm EST Friday 31 July 2015 (issued every 10 minutes, with the page automatically refreshed every 10 minutes)

About coastal observations | Map of coastal stations | Coastal observations for QLD | Marine services | Other Formats
Station Details ID: 033208 Name: ROSSLYN BAY NTC AWS Lat: -23.16 Lon: 150.79 Height: 0.0 m
Data from the previous 72 hours. | See also: Recent months for locations in Queensland
Date/Time
EST
Temp

°C
Wind Pressure Rain
since 9am
mm
Weather Cloud Vis
km
Sea
Height
m
Swell
Dir
 
Speed
knots
Gust
knots
hPa Trend Height
m
Period
s
Dir
31/09:00pm 17.4 S 3 5 1021.3 - - - - - - - - -
31/08:30pm 18.2 S 3 4 1021.2 - - - - - - - - -
31/08:00pm 17.9 S 2 3 1021.1 - - - - - - - - -
31/07:30pm 19.6 N 2 3 1020.9 - - - - - - - - -
31/07:00pm 19.5 NE 3 4 1020.5 - - - - - - - - -
31/06:30pm 19.7 NNE 2 3 1020.3 - - - - - - - - -
31/06:00pm 20.2 NE 3 4 1020.1 - - - - - - - - -
31/05:30pm 20.4 ENE 4 5 1020.0 - - - - - - - - -
31/05:00pm 20.5 ENE 5 8 1020.0 - - - - - - - - -
31/04:30pm 20.8 ENE 4 8 1019.9 - - - - - - - - -
31/04:00pm 20.2 ENE 3 4 1020.1 - - - - - - - - -
31/03:30pm 20.2 ENE 3 4 1020.1 - - - - - - - - -
31/03:00pm 20.3 ENE 3 4 1020.3 - - - - - - - - -
31/02:30pm 19.9 ENE 4 7 1020.7 - - - - - - - - -
31/02:00pm 20.7 SSW 2 5 1020.9 - - - - - - - - -
31/01:30pm 20.3 S 3 7 1021.3 - - - - - - - - -
31/01:00pm 19.9 S 5 9 1021.7 - - - - - - - - -
31/12:30pm 19.4 S 5 9 1022.2 - - - - - - - - -
31/12:00pm 18.9 S 6 9 1023.0 - - - - - - - - -
31/11:30am 18.5 S 6 9 1023.2 - - - - - - - - -
31/11:00am 18.4 S 6 9 1023.6 - - - - - - - - -
31/10:30am 18.4 S 6 9 1024.1 - - - - - - - - -
31/10:00am 18.5 S 4 7 1024.1 - - - - - - - - -
31/09:30am 18.2 S 5 8 1024.2 - - - - - - - - -
31/09:00am 17.7 S 5 9 1023.8 - - - - - - - - -
31/08:30am 17.2 S 5 9 1023.5 - - - - - - - - -
31/08:00am 16.4 SSW 4 7 1023.0 - - - - - - - - -
31/07:30am 15.6 SW 4 5 1022.8 - - - - - - - - -
31/07:00am 15.5 SSW 3 6 1022.9 - - - - - - - - -
31/06:30am 14.6 SSW 3 4 1022.8 - - - - - - - - -
31/06:00am 14.6 S 4 6 1022.3 - - - - - - - - -
31/05:30am 14.6 SSW 3 5 1021.7 - - - - - - - - -
31/05:00am 15.1 SSW 3 6 1021.6 - - - - - - - - -
31/04:30am 15.0 SSW 2 3 1021.6 - - - - - - - - -
31/04:00am 15.0 SSW 3 5 1021.7 - - - - - - - - -
31/03:30am 15.1 SSW 4 6 1021.9 - - - - - - - - -
31/03:00am 15.2 SSW 4 6 1021.9 - - - - - - - - -
31/02:30am 15.4 SSW 3 6 1022.2 - - - - - - - - -
31/02:00am 15.5 SSW 5 8 1022.4 - - - - - - - - -
31/01:30am 15.3 S 5 7 1022.5 - - - - - - - - -
31/01:00am 15.5 SSW 4 6 1022.7 - - - - - - - - -
31/12:30am 16.2 SSW 3 5 1023.1 - - - - - - - - -
31/12:00am 16.2 SSW 3 4 1023.4 - - - - - - - - -
 
Date/Time
EST
Temp

°C
Wind Pressure Rain
since 9am
mm
Weather Cloud Vis
km
Sea
Height
m
Swell
Dir
 
Speed
knots
Gust
knots
hPa Trend Height
m
Period
s
Dir
30/11:30pm 16.8 SSW 1 3 1023.7 - - - - - - - - -
30/11:00pm 16.8 S 3 5 1024.0 - - - - - - - - -
30/10:30pm 17.3 S 2 3 1024.1 - - - - - - - - -
30/10:00pm 18.0 S 1 3 1024.2 - - - - - - - - -
30/09:30pm 17.9 SSW 2 5 1024.1 - - - - - - - - -
30/09:00pm 19.2 SSW 1 4 1023.8 - - - - - - - - -
30/08:30pm 19.6 S 5 9 1023.6 - - - - - - - - -
30/08:00pm 19.6 S 5 9 1023.3 - - - - - - - - -
30/07:30pm 19.6 S 6 11 1022.8 - - - - - - - - -
30/07:00pm 19.6 S 7 10 1022.6 - - - - - - - - -
30/06:30pm 19.6 S 5 10 1022.4 - - - - - - - - -
30/06:00pm 19.6 S 6 11 1022.5 - - - - - - - - -
30/05:30pm 19.7 S 8 14 1022.5 - - - - - - - - -
30/05:00pm 19.9 S 8 12 1022.3 - - - - - - - - -
30/04:30pm 19.9 S 9 14 1022.3 - - - - - - - - -
30/04:00pm 20.0 S 8 12 1022.4 - - - - - - - - -
30/03:30pm 20.0 S 9 14 1022.3 - - - - - - - - -
30/03:00pm 20.0 S 9 15 1022.3 - - - - - - - - -
30/02:30pm 20.1 S 9 15 1022.6 - - - - - - - - -
30/02:00pm 20.0 S 9 15 1023.0 - - - - - - - - -
30/01:30pm 19.8 S 10 15 1023.1 - - - - - - - - -
30/01:00pm 19.8 S 10 16 1023.5 - - - - - - - - -
30/12:30pm 19.5 S 9 15 1023.8 - - - - - - - - -
30/12:00pm 19.3 S 9 14 1024.5 - - - - - - - - -
30/11:30am 19.0 S 9 15 1025.1 - - - - - - - - -
30/11:00am 18.5 S 10 18 1025.4 - - - - - - - - -
30/10:30am 18.6 S 11 18 1025.6 - - - - - - - - -
30/10:00am 18.4 S 9 15 1025.8 - - - - - - - - -
30/09:30am 18.0 S 11 19 1025.8 - - - - - - - - -
30/09:00am 17.7 S 10 17 1025.5 - - - - - - - - -
30/08:30am 17.5 S 7 15 1025.6 - - - - - - - - -
30/08:00am 17.1 S 8 16 1025.4 - - - - - - - - -
30/07:30am 17.0 SSW 6 16 1025.2 - - - - - - - - -
30/07:00am 17.2 S 8 16 1024.9 - - - - - - - - -
30/06:30am 17.3 S 9 21 1024.7 - - - - - - - - -
30/06:00am 17.2 S 9 19 1024.5 - - - - - - - - -
30/05:30am 16.8 S 6 13 1024.3 - - - - - - - - -
30/05:00am 16.4 SSW 5 10 1024.0 - - - - - - - - -
30/04:30am 16.1 SSW 6 11 1024.4 - - - - - - - - -
30/04:00am 16.5 SSW 7 11 1024.7 - - - - - - - - -
30/03:30am 17.0 S 6 13 1024.6 - - - - - - - - -
30/03:00am 17.4 S 6 13 1024.8 - - - - - - - - -
30/02:30am 17.6 S 8 17 1025.0 - - - - - - - - -
30/02:00am 17.8 S 5 13 1025.1 - - - - - - - - -
30/01:30am 17.8 S 7 14 1025.3 - - - - - - - - -
30/01:00am 18.1 S 8 17 1025.6 - - - - - - - - -
30/12:30am 18.2 S 11 18 1025.8 - - - - - - - - -
30/12:00am 18.4 S 11 20 1026.0 - - - - - - - - -
 
Date/Time
EST
Temp

°C
Wind Pressure Rain
since 9am
mm
Weather Cloud Vis
km
Sea
Height
m
Swell
Dir
 
Speed
knots
Gust
knots
hPa Trend Height
m
Period
s
Dir
29/11:30pm 18.7 S 13 22 1025.9 - - - - - - - - -
29/11:00pm 18.7 S 11 21 1026.2 - - - - - - - - -
29/10:30pm 18.8 S 10 17 1026.3 - - - - - - - - -
29/10:00pm 19.4 S 12 19 1026.2 - - - - - - - - -
29/09:30pm 19.5 S 12 19 1026.2 - - - - - - - - -
29/09:00pm 19.5 S 13 21 1026.5 - - - - - - - - -
29/08:30pm 19.6 S 13 20 1026.4 - - - - - - - - -
29/08:00pm 19.6 S 13 19 1026.2 - - - - - - - - -
29/07:30pm 19.7 S 12 18 1026.0 - - - - - - - - -
29/07:00pm 19.6 S 12 19 1025.8 - - - - - - - - -
29/06:30pm 19.7 S 12 17 1025.5 - - - - - - - - -
29/06:00pm 19.6 S 11 18 1025.4 - - - - - - - - -
29/05:30pm 19.7 S 11 18 1025.2 - - - - - - - - -
29/05:00pm 19.7 S 12 20 1024.9 - - - - - - - - -
29/04:30pm 19.7 S 12 18 1024.6 - - - - - - - - -
29/04:00pm 19.7 S 12 19 1024.6 - - - - - - - - -
29/03:30pm 19.7 S 11 19 1024.7 - - - - - - - - -
29/03:00pm 19.9 S 11 17 1024.9 - - - - - - - - -
29/02:30pm 20.0 S 10 18 1025.0 - - - - - - - - -
29/02:00pm 20.0 S 10 17 1025.4 - - - - - - - - -
29/01:30pm 19.8 S 10 18 1025.7 - - - - - - - - -
29/01:00pm 19.5 S 10 18 1026.0 - - - - - - - - -
29/12:30pm 19.5 S 9 19 1026.5 - - - - - - - - -
29/12:00pm 19.4 S 11 21 1027.1 - - - - - - - - -
29/11:30am 19.2 S 10 19 1027.3 - - - - - - - - -
29/11:00am 18.5 S 8 14 1027.8 - - - - - - - - -
29/10:30am 18.1 S 7 14 1028.3 - - - - - - - - -
29/10:00am 17.6 S 7 14 1028.6 - - - - - - - - -
29/09:30am 17.6 S 7 14 1028.8 - - - - - - - - -
29/09:00am 17.4 S 6 13 1028.8 - - - - - - - - -
29/08:30am 17.0 S 7 14 1028.6 - - - - - - - - -
29/08:00am 16.1 SSW 6 10 1028.4 - - - - - - - - -
29/07:30am 15.6 SSW 6 10 1028.1 - - - - - - - - -
29/07:00am 15.9 SSW 6 11 1027.8 - - - - - - - - -
29/06:30am 17.1 S 6 12 1027.4 - - - - - - - - -
29/06:00am 17.3 S 6 18 1027.3 - - - - - - - - -
29/05:30am 17.4 S 8 19 1027.1 - - - - - - - - -
29/05:00am 17.4 S 7 19 1026.9 - - - - - - - - -
29/04:30am 17.5 S 7 16 1026.7 - - - - - - - - -
29/04:00am 17.4 S 7 17 1026.7 - - - - - - - - -
29/03:30am 17.4 S 7 16 1026.7 - - - - - - - - -
29/03:00am 17.6 S 7 15 1026.7 - - - - - - - - -
29/02:30am 17.7 S 6 12 1026.6 - - - - - - - - -
29/02:00am 17.9 S 7 15 1026.7 - - - - - - - - -
29/01:30am 19.3 S 11 20 1026.5 - - - - - - - - -
29/01:00am 19.5 S 12 21 1026.8 - - - - - - - - -
29/12:30am 19.4 S 12 21 1026.7 - - - - - - - - -
29/12:00am 19.5 S 13 21 1026.7 - - - - - - - - -
 
Date/Time
EST
Temp

°C
Wind Pressure Rain
since 9am
mm
Weather Cloud Vis
km
Sea
Height
m
Swell
Dir
 
Speed
knots
Gust
knots
hPa Trend Height
m
Period
s
Dir
28/11:30pm 19.5 S 14 24 1026.8 - - - - - - - - -
28/11:00pm 19.6 S 12 21 1026.9 - - - - - - - - -
28/10:30pm 19.7 S 13 21 1027.2 - - - - - - - - -
28/10:00pm 19.7 S 13 21 1027.0 - - - - - - - - -
28/09:30pm 19.7 S 14 22 1027.2 - - - - - - - - -

Other Formats:

Comma delimited format used in spreadsheet applications
http://www.bom.gov.au/fwo/IDQ60701/IDQ60701.95298.axf

JavaScript Object Notation format (JSON) in row-major order
http://www.bom.gov.au/fwo/IDQ60701/IDQ60701.95298.json